Time;durP1;ratioP1;P1;durP2;ratioP2;P2;SDS_P1;SDS_P2;PMS_P1;PMS_P2;Temp;Humidity;BMP_temperature;BMP_pressure;BME280_temperature;BME280_humidity;BME280_pressure;Samples;Min_cycle;Max_cycle;Signal;HPM_P1;HPM_P2
2022/09/18 00:00:44;;;;;;;8.23;1.42;;;11.80;78.40;;;;;;5113919;28;20039;-77
2022/09/18 00:03:10;;;;;;;9.52;2.13;;;11.90;77.20;;;;;;5113705;28;20044;-75
2022/09/18 00:05:37;;;;;;;10.88;1.98;;;12.00;77.10;;;;;;5113646;28;20510;-75
2022/09/18 00:08:04;;;;;;;7.00;1.80;;;12.10;77.30;;;;;;5113831;28;20036;-77
2022/09/18 00:10:30;;;;;;;5.00;1.25;;;12.10;77.30;;;;;;5113574;28;20051;-77
2022/09/18 00:12:56;;;;;;;5.75;1.67;;;12.20;76.70;;;;;;5112332;28;20039;-78
2022/09/18 00:15:21;;;;;;;10.48;1.92;;;12.30;76.60;;;;;;5096471;28;20096;-75
2022/09/18 00:17:47;;;;;;;4.72;1.30;;;12.30;76.20;;;;;;5113405;28;20036;-76
2022/09/18 00:20:13;;;;;;;4.05;1.00;;;12.40;75.70;;;;;;5113606;28;20043;-78
2022/09/18 00:22:39;;;;;;;5.18;1.25;;;12.50;75.20;;;;;;5113505;28;20091;-76
2022/09/18 00:25:07;;;;;;;5.88;1.15;;;12.50;74.90;;;;;;5113322;28;20165;-77
2022/09/18 00:27:33;;;;;;;4.70;1.55;;;12.50;75.10;;;;;;5113224;28;20036;-78
2022/09/18 00:29:59;;;;;;;6.93;1.20;;;12.50;75.80;;;;;;5096423;28;20046;-77
2022/09/18 00:32:24;;;;;;;4.40;1.00;;;12.50;76.20;;;;;;5112765;28;20047;-76
2022/09/18 00:34:50;;;;;;;8.95;1.63;;;12.50;76.10;;;;;;5113197;28;20092;-76
2022/09/18 00:37:19;;;;;;;7.47;2.15;;;12.50;76.30;;;;;;5096083;28;20043;-78
2022/09/18 00:39:44;;;;;;;9.65;1.55;;;12.50;76.50;;;;;;5112965;28;20042;-75
2022/09/18 00:42:12;;;;;;;9.32;1.10;;;12.50;76.60;;;;;;5112908;28;20044;-77
2022/09/18 00:44:43;;;;;;;5.10;1.30;;;12.50;76.70;;;;;;5113171;28;20399;-77
2022/09/18 00:47:08;;;;;;;9.05;2.03;;;12.50;76.90;;;;;;5096173;28;20085;-76
2022/09/18 00:49:44;;;;;;;10.77;1.75;;;12.50;77.00;;;;;;5112794;28;20429;-78
2022/09/18 00:52:12;;;;;;;9.52;2.20;;;12.50;77.20;;;;;;5112794;28;20120;-76
2022/09/18 00:54:45;;;;;;;7.20;1.25;;;12.50;77.40;;;;;;5112691;28;20084;-75
2022/09/18 00:57:15;;;;;;;17.58;2.05;;;12.60;77.50;;;;;;5112998;28;20403;-76
2022/09/18 00:59:44;;;;;;;10.98;1.95;;;12.60;77.30;;;;;;5112895;28;20491;-77
2022/09/18 01:02:11;;;;;;;9.38;1.77;;;12.60;77.20;;;;;;5112831;28;20098;-78
2022/09/18 01:04:37;;;;;;;7.35;1.23;;;12.60;77.40;;;;;;5112622;28;20130;-76
2022/09/18 01:07:38;;;;;;;11.73;1.85;;;12.60;77.60;;;;;;5112368;28;20544;-78
2022/09/18 01:10:25;;;;;;;8.93;1.40;;;12.60;78.10;;;;;;5112817;28;20455;-77
2022/09/18 01:13:32;;;;;;;6.68;1.33;;;12.60;78.30;;;;;;5112409;28;20048;-76
2022/09/18 01:16:08;;;;;;;10.05;1.40;;;12.50;78.80;;;;;;5112403;28;20039;-76
2022/09/18 01:19:12;;;;;;;8.30;1.20;;;12.50;79.40;;;;;;5112427;28;20046;-75
2022/09/18 01:22:07;;;;;;;7.87;1.50;;;12.40;80.10;;;;;;5112407;28;20168;-79
2022/09/18 01:25:01;;;;;;;9.50;1.55;;;12.30;80.70;;;;;;5075820;28;20051;-76
2022/09/18 01:27:40;;;;;;;6.40;1.80;;;12.20;81.20;;;;;;5095637;28;20036;-78
2022/09/18 01:30:09;;;;;;;11.80;2.20;;;12.20;81.70;;;;;;5112284;28;20040;-76
2022/09/18 01:32:42;;;;;;;7.20;2.15;;;12.20;81.90;;;;;;5111791;28;20043;-75
2022/09/18 01:35:14;;;;;;;;;;;12.20;82.10;;;;;;5112704;28;20071;-76
2022/09/18 01:37:54;;;;;;;6.55;1.20;;;12.10;82.20;;;;;;5112203;28;20383;-78
2022/09/18 01:40:26;;;;;;;10.45;1.00;;;12.10;82.70;;;;;;5095186;28;20047;-79
2022/09/18 01:42:55;;;;;;;6.95;1.48;;;12.10;82.50;;;;;;5112269;28;20119;-77
2022/09/18 01:45:26;;;;;;;6.47;1.25;;;12.10;82.70;;;;;;5112043;28;20521;-78
2022/09/18 01:48:31;;;;;;;7.15;1.98;;;12.10;83.10;;;;;;5112376;28;20433;-76
2022/09/18 01:51:05;;;;;;;9.10;1.33;;;12.20;83.10;;;;;;5112106;28;20108;-75
2022/09/18 01:53:40;;;;;;;9.35;1.38;;;12.20;83.20;;;;;;5111821;28;20122;-77
2022/09/18 01:56:12;;;;;;;9.65;1.70;;;12.20;83.00;;;;;;5112027;28;20097;-75
2022/09/18 01:58:38;;;;;;;6.95;2.15;;;12.10;82.80;;;;;;5112237;28;20388;-76
2022/09/18 02:01:08;;;;;;;9.77;1.40;;;12.20;82.30;;;;;;5111925;28;20031;-77
2022/09/18 02:03:44;;;;;;;5.95;1.10;;;12.20;81.80;;;;;;5111802;28;20043;-80
2022/09/18 02:06:25;;;;;;;7.95;1.15;;;12.20;81.60;;;;;;5111903;28;20047;-77
2022/09/18 02:08:53;;;;;;;8.68;1.30;;;12.20;81.50;;;;;;5095207;28;20495;-76
2022/09/18 02:11:20;;;;;;;7.65;1.80;;;12.30;81.70;;;;;;5112118;28;20365;-75
2022/09/18 02:13:55;;;;;;;9.10;1.23;;;12.20;81.80;;;;;;5094661;28;20040;-75
2022/09/18 02:16:50;;;;;;;5.53;1.92;;;12.20;81.50;;;;;;5112053;28;20063;-76
2022/09/18 02:19:24;;;;;;;;;;;12.20;81.70;;;;;;5112275;28;20039;-76
2022/09/18 02:21:53;;;;;;;7.55;1.92;;;12.10;81.90;;;;;;5112072;28;19952;-75
2022/09/18 02:24:22;;;;;;;6.90;2.03;;;12.10;82.60;;;;;;5111756;28;20051;-76
2022/09/18 02:26:50;;;;;;;7.15;1.65;;;12.00;83.00;;;;;;5111705;28;20036;-76
2022/09/18 02:29:17;;;;;;;6.53;1.30;;;12.00;83.30;;;;;;5111757;28;20063;-77
2022/09/18 02:31:48;;;;;;;7.30;1.42;;;12.00;83.70;;;;;;5111785;28;20097;-78
2022/09/18 02:34:14;;;;;;;5.90;1.50;;;11.90;83.90;;;;;;5094851;28;20110;-77
2022/09/18 02:36:52;;;;;;;7.05;1.35;;;12.00;83.80;;;;;;5113604;28;20246;-76
2022/09/18 02:39:35;;;;;;;9.60;1.60;;;11.90;83.60;;;;;;5115489;28;20086;-77
2022/09/18 02:42:11;;;;;;;4.68;1.00;;;11.90;83.60;;;;;;5115594;28;20433;-77
2022/09/18 02:45:14;;;;;;;6.32;1.30;;;12.00;83.10;;;;;;5115628;28;20075;-75
2022/09/18 02:47:49;;;;;;;7.35;1.83;;;12.00;82.60;;;;;;5098416;28;20379;-76
2022/09/18 02:50:32;;;;;;;5.90;1.17;;;12.00;82.60;;;;;;5115488;28;20383;-75
2022/09/18 02:53:22;;;;;;;7.17;2.13;;;12.00;82.60;;;;;;5115037;28;20118;-79
2022/09/18 02:56:01;;;;;;;7.53;1.75;;;11.90;82.60;;;;;;5115401;28;20456;-75
2022/09/18 02:59:00;;;;;;;4.47;1.65;;;11.90;82.90;;;;;;5115295;28;20096;-78
2022/09/18 03:01:26;;;;;;;6.38;1.25;;;11.80;83.10;;;;;;5110791;28;20043;-76
2022/09/18 03:03:52;;;;;;;8.90;1.67;;;11.80;83.30;;;;;;5115225;28;20040;-76
2022/09/18 03:06:18;;;;;;;9.70;2.40;;;11.80;83.40;;;;;;5097861;28;20479;-77
2022/09/18 03:08:45;;;;;;;11.65;1.52;;;11.80;83.60;;;;;;5114819;28;20120;-76
2022/09/18 03:11:12;;;;;;;5.88;1.88;;;11.80;83.70;;;;;;5097768;28;20050;-76
2022/09/18 03:13:38;;;;;;;11.00;1.77;;;11.80;83.90;;;;;;5114615;28;20039;-77
2022/09/18 03:16:03;;;;;;;8.35;1.70;;;11.80;83.90;;;;;;5080945;28;20043;-74
2022/09/18 03:18:30;;;;;;;6.82;1.85;;;11.80;84.30;;;;;;5081165;28;20391;-77
2022/09/18 03:20:55;;;;;;;9.32;1.88;;;11.80;84.40;;;;;;5114513;28;20499;-77
2022/09/18 03:23:22;;;;;;;5.25;1.17;;;12.00;83.80;;;;;;5097727;28;20040;-75
2022/09/18 03:25:49;;;;;;;7.13;0.95;;;12.00;83.90;;;;;;5114705;28;20082;-76
2022/09/18 03:28:15;;;;;;;6.32;1.10;;;12.00;84.10;;;;;;5114704;28;20062;-77
2022/09/18 03:30:43;;;;;;;5.95;1.33;;;12.00;84.20;;;;;;5114690;28;20403;-75
2022/09/18 03:33:09;;;;;;;7.22;1.05;;;11.90;84.20;;;;;;5114018;28;20051;-77
2022/09/18 03:35:34;;;;;;;5.63;1.20;;;11.90;84.50;;;;;;5114334;28;20062;-76
2022/09/18 03:38:00;;;;;;;5.88;1.10;;;11.90;84.60;;;;;;5114180;28;20054;-75
2022/09/18 03:40:26;;;;;;;4.15;1.00;;;11.90;84.80;;;;;;5114159;28;20035;-74
2022/09/18 03:42:52;;;;;;;5.13;1.17;;;11.80;84.80;;;;;;5114107;28;20097;-75
2022/09/18 03:45:17;;;;;;;6.22;1.20;;;11.90;85.20;;;;;;5114413;28;20046;-75
2022/09/18 03:47:43;;;;;;;4.97;1.27;;;11.90;85.30;;;;;;5113745;28;20047;-76
2022/09/18 03:50:10;;;;;;;8.35;1.48;;;11.80;85.70;;;;;;5113979;28;20403;-76
2022/09/18 03:52:35;;;;;;;5.20;0.80;;;11.90;85.80;;;;;;5113815;28;20051;-77
2022/09/18 03:55:01;;;;;;;8.98;1.55;;;12.00;85.60;;;;;;5113918;28;20039;-75
2022/09/18 03:57:27;;;;;;;7.68;1.00;;;12.00;85.40;;;;;;5113855;28;20084;-76
2022/09/18 03:59:53;;;;;;;4.45;0.73;;;12.00;85.40;;;;;;5113758;28;20040;-75
2022/09/18 04:02:18;;;;;;;10.43;1.27;;;12.10;85.20;;;;;;5113968;28;20116;-77
2022/09/18 04:04:44;;;;;;;5.18;1.33;;;12.00;85.40;;;;;;5113659;28;20502;-74
2022/09/18 04:07:10;;;;;;;3.80;1.08;;;12.00;85.40;;;;;;5113702;28;20043;-74
2022/09/18 04:09:35;;;;;;;2.38;0.60;;;12.00;84.70;;;;;;5113645;28;20043;-76
2022/09/18 04:12:01;;;;;;;4.25;0.82;;;12.00;84.70;;;;;;5113553;28;20051;-76
2022/09/18 04:14:27;;;;;;;3.58;0.60;;;11.90;84.50;;;;;;5113451;28;20036;-75
2022/09/18 04:16:53;;;;;;;3.92;0.60;;;11.90;84.30;;;;;;5113473;28;20464;-75
2022/09/18 04:19:19;;;;;;;4.72;0.70;;;11.80;84.10;;;;;;5113676;28;20829;-76
2022/09/18 04:21:44;;;;;;;5.60;0.90;;;11.80;83.90;;;;;;5096636;28;20040;-75
2022/09/18 04:24:10;;;;;;;5.38;1.08;;;11.70;84.10;;;;;;5096396;28;20491;-76
2022/09/18 04:26:36;;;;;;;7.00;0.82;;;11.60;84.40;;;;;;5113345;28;20096;-75
2022/09/18 04:29:02;;;;;;;5.85;1.20;;;11.60;84.90;;;;;;5113314;28;20042;-77
2022/09/18 04:31:28;;;;;;;6.45;1.27;;;11.50;85.20;;;;;;5113106;28;20043;-77
2022/09/18 04:33:54;;;;;;;6.65;1.38;;;11.60;85.50;;;;;;5112942;28;20069;-75
2022/09/18 04:36:19;;;;;;;5.82;1.50;;;11.50;85.80;;;;;;5096499;28;20518;-78
2022/09/18 04:38:46;;;;;;;3.40;1.13;;;11.40;86.00;;;;;;5113389;28;20047;-76
2022/09/18 04:41:11;;;;;;;4.90;1.15;;;11.40;86.50;;;;;;5113064;28;20044;-75
2022/09/18 04:43:37;;;;;;;11.15;1.80;;;11.40;86.80;;;;;;5113063;28;20044;-77
2022/09/18 04:46:02;;;;;;;6.78;1.02;;;11.30;86.90;;;;;;5095965;28;20043;-76
2022/09/18 04:48:28;;;;;;;10.40;1.73;;;11.40;87.40;;;;;;5095851;28;20399;-77
2022/09/18 04:50:54;;;;;;;9.57;1.40;;;11.40;87.60;;;;;;5113091;28;20602;-78
2022/09/18 04:53:20;;;;;;;8.38;1.45;;;11.40;87.70;;;;;;5112803;28;20035;-75
2022/09/18 04:55:47;;;;;;;10.98;1.67;;;11.40;88.00;;;;;;5079122;28;20071;-76
2022/09/18 04:58:14;;;;;;;6.05;1.00;;;11.40;88.50;;;;;;5095382;28;20128;-77
2022/09/18 05:00:40;;;;;;;5.03;1.00;;;11.50;88.30;;;;;;5112537;28;20047;-75
2022/09/18 05:03:07;;;;;;;6.40;0.98;;;11.50;87.60;;;;;;5112586;28;20043;-75
2022/09/18 05:05:32;;;;;;;5.95;1.73;;;11.60;86.90;;;;;;5112905;28;20043;-76
2022/09/18 05:07:59;;;;;;;3.72;0.80;;;11.60;86.40;;;;;;5095596;28;20459;-76
2022/09/18 05:10:25;;;;;;;4.45;1.00;;;11.70;86.10;;;;;;5112526;28;20050;-77
2022/09/18 05:12:51;;;;;;;1.23;0.52;;;11.70;85.60;;;;;;5112327;28;20112;-75
2022/09/18 05:15:18;;;;;;;4.57;1.58;;;11.80;84.90;;;;;;5112737;28;20040;-75
2022/09/18 05:17:44;;;;;;;7.45;2.47;;;12.00;83.80;;;;;;5112348;28;20505;-76
2022/09/18 05:20:10;;;;;;;9.23;1.52;;;12.00;84.20;;;;;;5112311;28;20126;-78
2022/09/18 05:22:35;;;;;;;7.47;2.20;;;12.00;84.60;;;;;;5112483;28;20040;-75
2022/09/18 05:25:02;;;;;;;7.20;1.50;;;12.00;84.80;;;;;;5095330;28;20077;-76
2022/09/18 05:27:28;;;;;;;7.30;1.33;;;11.90;85.00;;;;;;5112106;28;20537;-74
2022/09/18 05:29:54;;;;;;;5.55;0.77;;;11.90;84.80;;;;;;5111843;28;20052;-76
2022/09/18 05:32:19;;;;;;;4.88;1.42;;;11.90;84.50;;;;;;5111894;28;20384;-77
2022/09/18 05:34:48;;;;;;;3.97;0.82;;;11.80;84.40;;;;;;5112094;28;20055;-77
2022/09/18 05:37:15;;;;;;;4.32;1.20;;;11.70;84.30;;;;;;5112164;28;20502;-77
2022/09/18 05:39:42;;;;;;;5.88;1.00;;;11.70;84.10;;;;;;5095638;28;20039;-76
2022/09/18 05:42:08;;;;;;;6.97;1.30;;;11.70;84.20;;;;;;5112076;28;20504;-76
2022/09/18 05:44:33;;;;;;;7.45;1.20;;;11.70;84.40;;;;;;5112039;28;20479;-75
2022/09/18 05:47:00;;;;;;;3.15;0.95;;;11.70;84.90;;;;;;5112009;28;20035;-76
2022/09/18 05:49:25;;;;;;;3.70;1.05;;;11.70;85.00;;;;;;5112069;28;20124;-75
2022/09/18 05:51:53;;;;;;;11.70;2.03;;;11.70;84.90;;;;;;5111951;28;20047;-76
2022/09/18 05:54:19;;;;;;;8.02;1.77;;;11.60;85.10;;;;;;5111897;28;20043;-76
2022/09/18 05:56:45;;;;;;;2.90;1.08;;;11.60;85.00;;;;;;5111995;28;20040;-75
2022/09/18 05:59:11;;;;;;;10.30;1.13;;;11.60;85.10;;;;;;5112165;28;20547;-76
2022/09/18 06:01:37;;;;;;;6.72;1.08;;;11.60;85.00;;;;;;5111816;28;20115;-75
2022/09/18 06:04:03;;;;;;;6.50;1.40;;;11.60;84.80;;;;;;5095234;28;20083;-79
2022/09/18 06:06:29;;;;;;;4.38;1.02;;;11.60;84.80;;;;;;5111888;28;20083;-75
2022/09/18 06:08:55;;;;;;;7.35;1.23;;;11.60;84.90;;;;;;5111903;28;20114;-75
2022/09/18 06:11:20;;;;;;;6.40;1.67;;;11.70;84.90;;;;;;5115358;28;20047;-75
2022/09/18 06:13:48;;;;;;;12.88;2.42;;;11.70;84.90;;;;;;5098725;28;20491;-78
2022/09/18 06:16:14;;;;;;;9.80;1.65;;;11.60;85.00;;;;;;5099144;28;20055;-78
2022/09/18 06:18:40;;;;;;;10.52;1.50;;;11.60;85.20;;;;;;5115854;28;20050;-76
2022/09/18 06:21:06;;;;;;;9.90;1.38;;;11.70;85.30;;;;;;5115827;28;20039;-77
2022/09/18 06:23:32;;;;;;;8.63;1.73;;;11.60;85.60;;;;;;5115959;28;20039;-78
2022/09/18 06:26:03;;;;;;;9.68;2.30;;;11.70;85.70;;;;;;5115964;28;20044;-78
2022/09/18 06:28:31;;;;;;;8.07;1.40;;;11.70;85.60;;;;;;5115576;28;20044;-75
2022/09/18 06:30:57;;;;;;;6.75;0.90;;;11.80;85.50;;;;;;5115579;28;20096;-76
2022/09/18 06:33:23;;;;;;;6.60;1.15;;;11.90;85.40;;;;;;5115386;28;20050;-77
2022/09/18 06:35:49;;;;;;;3.97;0.73;;;11.90;85.30;;;;;;5115359;28;20036;-77
2022/09/18 06:38:15;;;;;;;7.68;1.25;;;11.80;85.10;;;;;;5115682;28;20067;-75
2022/09/18 06:40:48;;;;;;;4.32;1.20;;;11.80;85.40;;;;;;5115365;28;20048;-77
2022/09/18 06:43:14;;;;;;;7.00;1.45;;;11.70;85.40;;;;;;5115625;28;20039;-78
2022/09/18 06:45:40;;;;;;;6.40;0.88;;;11.70;85.90;;;;;;5115529;28;20491;-74
2022/09/18 06:48:08;;;;;;;6.10;1.45;;;11.70;86.00;;;;;;5098567;28;20049;-77
2022/09/18 06:50:34;;;;;;;6.65;1.02;;;11.60;86.30;;;;;;5115515;28;20454;-75
2022/09/18 06:53:02;;;;;;;6.40;1.05;;;11.50;86.50;;;;;;5115294;28;20127;-76
2022/09/18 06:55:28;;;;;;;5.75;1.02;;;11.50;86.80;;;;;;5115039;28;20036;-77
2022/09/18 06:57:54;;;;;;;4.93;1.27;;;11.60;86.50;;;;;;5115300;28;20391;-78
2022/09/18 07:00:21;;;;;;;7.22;1.25;;;11.50;86.30;;;;;;5115003;28;20245;-78
2022/09/18 07:02:56;;;;;;;3.13;0.90;;;11.50;86.00;;;;;;5114954;28;20039;-79
2022/09/18 07:05:23;;;;;;;3.70;0.85;;;11.50;86.00;;;;;;5114967;28;20035;-77
2022/09/18 07:07:48;;;;;;;2.70;0.70;;;11.50;86.20;;;;;;5098211;28;20079;-78
2022/09/18 07:10:14;;;;;;;5.00;1.45;;;11.50;85.90;;;;;;5115062;28;20447;-78
2022/09/18 07:12:40;;;;;;;5.15;1.05;;;11.60;85.80;;;;;;5114709;28;20067;-75
2022/09/18 07:15:06;;;;;;;7.80;1.52;;;11.60;86.10;;;;;;5114794;28;20460;-77
2022/09/18 07:17:34;;;;;;;6.18;1.40;;;11.50;86.20;;;;;;5114707;28;20042;-77
2022/09/18 07:20:00;;;;;;;7.30;1.65;;;11.50;86.70;;;;;;5098082;28;20050;-78
2022/09/18 07:22:29;;;;;;;4.95;1.70;;;11.50;87.20;;;;;;5097538;28;20040;-78
2022/09/18 07:24:55;;;;;;;4.78;1.30;;;11.40;87.10;;;;;;5114562;28;20054;-76
2022/09/18 07:27:21;;;;;;;5.65;1.50;;;11.40;87.30;;;;;;5114717;28;20047;-78
2022/09/18 07:29:47;;;;;;;9.32;1.85;;;11.40;87.30;;;;;;5114592;28;20046;-79
2022/09/18 07:32:12;;;;;;;8.45;1.17;;;11.50;87.70;;;;;;5114629;28;20043;-74
2022/09/18 07:34:38;;;;;;;5.55;1.38;;;11.50;87.80;;;;;;5114091;28;20044;-77
2022/09/18 07:37:04;;;;;;;10.52;1.83;;;11.50;88.10;;;;;;5114184;28;20035;-75
2022/09/18 07:39:30;;;;;;;4.07;0.80;;;11.50;88.20;;;;;;5114464;28;20135;-75
2022/09/18 07:41:55;;;;;;;9.60;1.23;;;11.60;88.30;;;;;;5114188;28;20077;-76
2022/09/18 07:44:21;;;;;;;8.88;1.02;;;11.60;88.10;;;;;;5097242;28;20120;-76
2022/09/18 07:46:46;;;;;;;6.95;1.20;;;11.60;88.40;;;;;;5114150;28;20042;-75
2022/09/18 07:49:12;;;;;;;5.25;0.60;;;11.60;88.10;;;;;;5114111;28;20116;-74
2022/09/18 07:51:38;;;;;;;5.53;1.02;;;11.60;87.60;;;;;;5113918;28;20043;-74
2022/09/18 07:54:04;;;;;;;5.43;1.10;;;11.70;87.20;;;;;;5113786;28;20087;-78
2022/09/18 07:56:29;;;;;;;4.00;0.73;;;11.60;87.20;;;;;;5097014;28;20061;-75
2022/09/18 07:58:55;;;;;;;4.53;0.88;;;11.60;87.10;;;;;;5113882;28;20101;-77
2022/09/18 08:01:21;;;;;;;4.50;0.98;;;11.70;86.90;;;;;;5096905;28;20051;-75
2022/09/18 08:03:46;;;;;;;5.05;0.70;;;11.60;87.00;;;;;;5096806;28;20054;-76
2022/09/18 08:06:12;;;;;;;4.47;0.90;;;11.70;87.00;;;;;;5114012;28;20390;-78
2022/09/18 08:08:38;;;;;;;7.57;0.93;;;11.70;86.80;;;;;;5113641;28;20490;-77
2022/09/18 08:11:04;;;;;;;6.13;1.17;;;11.70;86.90;;;;;;5096963;28;20040;-77
2022/09/18 08:13:30;;;;;;;3.65;0.60;;;11.80;86.60;;;;;;5113528;28;20043;-79
2022/09/18 08:15:57;;;;;;;5.43;1.40;;;11.80;87.10;;;;;;5113561;28;20047;-78
2022/09/18 08:18:22;;;;;;;4.78;1.02;;;11.80;87.40;;;;;;5113798;28;20035;-76
2022/09/18 08:20:48;;;;;;;5.65;0.95;;;11.80;87.50;;;;;;5113458;28;20092;-76
2022/09/18 08:23:14;;;;;;;4.20;1.08;;;11.90;87.80;;;;;;5113293;28;20043;-78
2022/09/18 08:25:40;;;;;;;7.40;1.58;;;12.00;88.20;;;;;;5113278;28;20047;-75
2022/09/18 08:28:07;;;;;;;1.92;0.70;;;12.00;88.10;;;;;;5113346;28;20047;-76
2022/09/18 08:30:33;;;;;;;2.63;0.60;;;12.00;86.80;;;;;;5113291;28;20336;-79
2022/09/18 08:33:01;;;;;;;2.30;0.50;;;11.90;86.00;;;;;;5112745;28;20453;-74
2022/09/18 08:35:27;;;;;;;3.92;0.50;;;11.90;85.00;;;;;;5112677;28;20052;-77
2022/09/18 08:37:54;;;;;;;3.78;0.50;;;11.90;84.60;;;;;;5096112;28;20353;-77
2022/09/18 08:40:29;;;;;;;3.17;0.70;;;11.80;84.90;;;;;;5113377;28;20119;-75
2022/09/18 08:43:38;;;;;;;3.38;0.65;;;11.90;84.90;;;;;;5113278;28;20042;-77
2022/09/18 08:46:10;;;;;;;3.58;0.63;;;11.90;85.10;;;;;;5102198;28;20047;-78
2022/09/18 08:48:52;;;;;;;7.07;0.80;;;11.80;85.50;;;;;;5113273;28;20116;-78
2022/09/18 08:51:27;;;;;;;3.60;0.55;;;11.90;85.90;;;;;;5113178;28;20051;-75
2022/09/18 08:53:56;;;;;;;;;;;12.00;85.70;;;;;;5113234;28;20040;-75
2022/09/18 08:56:24;;;;;;;5.07;1.58;;;12.00;85.10;;;;;;5113042;28;19989;-75
2022/09/18 08:59:06;;;;;;;2.85;0.50;;;12.00;84.40;;;;;;5112752;28;20043;-76
2022/09/18 09:01:45;;;;;;;4.20;1.50;;;12.00;84.70;;;;;;5112955;28;20462;-77
2022/09/18 09:04:21;;;;;;;5.95;0.90;;;12.00;84.40;;;;;;5112817;28;20054;-75
2022/09/18 09:07:02;;;;;;;5.32;1.25;;;12.00;84.20;;;;;;5112868;28;20089;-76
2022/09/18 09:09:48;;;;;;;4.32;1.30;;;12.00;84.20;;;;;;5095896;28;20050;-76
2022/09/18 09:12:41;;;;;;;3.42;0.98;;;12.00;84.50;;;;;;5112433;28;20052;-76
2022/09/18 09:15:33;;;;;;;3.53;0.98;;;12.00;84.60;;;;;;5112413;28;20042;-76
2022/09/18 09:18:17;;;;;;;6.50;1.02;;;12.00;84.50;;;;;;5081623;28;20502;-74
2022/09/18 09:20:50;;;;;;;4.35;0.95;;;12.10;84.30;;;;;;5112676;28;20040;-79
2022/09/18 09:23:40;;;;;;;10.17;1.50;;;12.10;84.70;;;;;;5112366;28;20078;-76
2022/09/18 09:26:11;;;;;;;8.32;1.65;;;12.10;84.60;;;;;;5112369;28;20126;-78
2022/09/18 09:29:00;;;;;;;5.38;1.42;;;12.10;84.50;;;;;;5112362;28;20510;-77
2022/09/18 09:31:33;;;;;;;7.82;1.13;;;12.10;84.40;;;;;;5112188;28;20047;-76
2022/09/18 09:34:21;;;;;;;8.13;1.40;;;12.10;84.30;;;;;;5111924;28;20043;-77
2022/09/18 09:36:49;;;;;;;4.47;1.10;;;12.00;84.70;;;;;;5098146;28;20116;-76
2022/09/18 09:39:55;;;;;;;4.93;1.38;;;12.00;84.50;;;;;;5112301;28;20043;-75
2022/09/18 09:42:42;;;;;;;8.93;1.48;;;12.00;84.90;;;;;;5111904;28;20051;-76
2022/09/18 09:45:16;;;;;;;7.68;1.45;;;12.00;85.00;;;;;;5111819;28;20097;-77
2022/09/18 09:48:00;;;;;;;16.83;2.58;;;12.00;85.20;;;;;;5112089;28;20504;-75
2022/09/18 09:50:56;;;;;;;8.43;1.95;;;12.00;85.50;;;;;;5112149;28;20047;-75
2022/09/18 09:53:23;;;;;;;9.50;1.52;;;12.00;86.20;;;;;;5111957;28;20557;-76
2022/09/18 09:56:14;;;;;;;10.57;1.35;;;12.00;86.50;;;;;;5111980;28;20051;-77
2022/09/18 09:59:00;;;;;;;6.57;1.48;;;12.00;86.60;;;;;;5111991;28;20403;-75
2022/09/18 10:01:33;;;;;;;10.35;2.00;;;11.90;86.80;;;;;;5112166;28;20148;-78
2022/09/18 10:04:24;;;;;;;11.38;2.38;;;12.00;87.10;;;;;;5112346;28;20047;-77
2022/09/18 10:07:06;;;;;;;11.68;2.20;;;12.00;87.10;;;;;;5112214;28;20044;-75
2022/09/18 10:09:39;;;;;;;11.77;2.05;;;12.00;87.10;;;;;;5095171;28;20054;-78
2022/09/18 10:12:35;;;;;;;10.60;2.38;;;12.10;87.70;;;;;;5111810;28;20180;-78
2022/09/18 10:15:20;;;;;;;6.97;1.73;;;12.00;87.80;;;;;;5104690;28;20060;-76
2022/09/18 10:17:51;;;;;;;10.98;1.42;;;12.10;88.20;;;;;;5111797;28;20044;-76
2022/09/18 10:20:25;;;;;;;7.45;1.92;;;12.20;88.20;;;;;;5111845;28;20039;-75
2022/09/18 10:22:51;;;;;;;10.30;1.45;;;12.20;88.10;;;;;;5112003;28;20437;-75
2022/09/18 10:25:37;;;;;;;9.80;2.08;;;12.10;87.90;;;;;;5111783;28;20044;-77
2022/09/18 10:28:03;;;;;;;4.53;1.45;;;12.20;87.90;;;;;;5112043;28;20046;-75
2022/09/18 10:30:29;;;;;;;7.47;1.70;;;12.20;87.90;;;;;;5111654;28;20403;-78
2022/09/18 10:32:55;;;;;;;13.25;2.03;;;12.30;87.90;;;;;;5111367;28;20075;-75
2022/09/18 10:35:30;;;;;;;7.50;1.63;;;12.30;88.00;;;;;;5111691;28;20047;-74
2022/09/18 10:37:56;;;;;;;5.93;1.67;;;12.40;88.00;;;;;;5111829;28;20372;-75
2022/09/18 10:40:32;;;;;;;7.10;1.67;;;12.40;88.10;;;;;;5111846;28;20396;-76
2022/09/18 10:42:59;;;;;;;7.43;1.40;;;12.50;87.90;;;;;;5111567;28;20446;-77
2022/09/18 10:45:35;;;;;;;7.75;1.73;;;12.60;87.50;;;;;;5111616;28;20105;-77
2022/09/18 10:48:16;;;;;;;6.68;1.75;;;12.70;86.90;;;;;;5094611;28;20039;-76
2022/09/18 10:51:00;;;;;;;4.63;1.23;;;12.80;85.70;;;;;;5111997;28;20416;-76
2022/09/18 10:53:33;;;;;;;6.38;1.70;;;12.90;84.40;;;;;;5111360;28;20122;-78
2022/09/18 10:56:12;;;;;;;4.20;1.33;;;12.90;83.40;;;;;;5111527;28;20487;-77
2022/09/18 10:58:38;;;;;;;6.22;1.40;;;13.00;83.30;;;;;;5114842;28;20040;-76
2022/09/18 11:01:07;;;;;;;6.85;1.17;;;13.10;83.10;;;;;;5115020;28;20043;-79
2022/09/18 11:03:36;;;;;;;10.23;1.95;;;13.20;82.10;;;;;;5114919;28;20130;-79
2022/09/18 11:06:14;;;;;;;11.23;1.83;;;13.20;81.00;;;;;;5115226;28;20040;-78
2022/09/18 11:08:43;;;;;;;7.95;1.45;;;13.30;80.50;;;;;;5098155;28;20051;-77
2022/09/18 11:11:18;;;;;;;8.15;1.98;;;13.40;80.10;;;;;;5114854;28;20046;-78
2022/09/18 11:14:05;;;;;;;7.32;1.30;;;13.50;79.40;;;;;;5097658;28;20100;-78
2022/09/18 11:16:51;;;;;;;5.15;1.52;;;13.50;78.80;;;;;;5115112;28;20453;-75
2022/09/18 11:19:39;;;;;;;4.45;1.98;;;13.60;78.50;;;;;;5114841;28;20100;-77
2022/09/18 11:22:26;;;;;;;7.57;2.33;;;13.60;78.20;;;;;;5114828;28;20036;-79
2022/09/18 11:25:19;;;;;;;6.50;1.45;;;13.60;78.40;;;;;;5114520;28;20511;-76
2022/09/18 11:28:22;;;;;;;7.05;1.63;;;13.70;77.80;;;;;;5114808;28;20406;-76
2022/09/18 11:31:01;;;;;;;6.85;2.38;;;13.80;77.80;;;;;;5114715;28;20442;-77
2022/09/18 11:33:31;;;;;;;4.40;1.10;;;13.80;77.70;;;;;;5114069;28;20048;-75
2022/09/18 11:36:01;;;;;;;9.88;2.10;;;13.80;78.10;;;;;;5114583;28;20036;-75
2022/09/18 11:38:28;;;;;;;10.07;1.83;;;13.90;78.50;;;;;;5114373;28;20032;-77
2022/09/18 11:40:57;;;;;;;8.25;1.48;;;13.80;78.70;;;;;;5114555;28;20514;-79
2022/09/18 11:43:29;;;;;;;5.75;1.50;;;13.80;78.00;;;;;;5114360;28;20510;-77
2022/09/18 11:46:07;;;;;;;5.93;1.90;;;13.80;77.00;;;;;;5114169;28;20047;-78
2022/09/18 11:48:47;;;;;;;5.15;1.20;;;13.50;78.50;;;;;;5114104;28;20596;-79
2022/09/18 11:51:25;;;;;;;8.38;1.20;;;13.40;78.40;;;;;;5097159;28;20110;-76
2022/09/18 11:54:01;;;;;;;4.95;1.10;;;13.10;79.60;;;;;;5114120;28;20043;-77
2022/09/18 11:56:46;;;;;;;2.22;1.05;;;13.00;80.40;;;;;;5114060;28;20127;-77
2022/09/18 11:59:25;;;;;;;3.55;0.60;;;12.90;80.40;;;;;;5113999;28;20089;-78
2022/09/18 12:01:57;;;;;;;6.88;1.50;;;13.00;79.80;;;;;;5113801;28;20036;-77
2022/09/18 12:04:54;;;;;;;2.55;0.95;;;12.90;79.50;;;;;;5113835;28;20048;-78
2022/09/18 12:07:35;;;;;;;3.95;1.02;;;13.00;79.70;;;;;;5096830;28;20075;-76
2022/09/18 12:10:39;;;;;;;4.32;0.85;;;13.00;79.70;;;;;;5113681;28;20043;-77
2022/09/18 12:13:34;;;;;;;7.72;1.40;;;13.00;79.50;;;;;;5092470;28;20043;-76
2022/09/18 12:16:14;;;;;;;11.15;1.45;;;13.00;80.10;;;;;;5113920;28;20171;-75
2022/09/18 12:18:52;;;;;;;6.55;1.15;;;13.00;80.00;;;;;;5113522;28;20071;-77
2022/09/18 12:21:24;;;;;;;4.95;1.20;;;13.10;80.10;;;;;;5113518;28;20040;-79
2022/09/18 12:23:50;;;;;;;5.60;1.85;;;13.20;79.80;;;;;;5113532;28;20040;-78
2022/09/18 12:26:22;;;;;;;7.60;1.70;;;13.20;80.40;;;;;;5113346;28;20126;-76
2022/09/18 12:29:10;;;;;;;13.23;1.88;;;13.20;80.30;;;;;;5113339;28;20082;-80
2022/09/18 12:32:09;;;;;;;8.32;2.63;;;13.30;80.10;;;;;;5113485;28;20043;-77
2022/09/18 12:34:47;;;;;;;8.05;2.60;;;13.30;80.30;;;;;;5113028;28;20052;-77
2022/09/18 12:37:20;;;;;;;10.70;1.83;;;13.30;80.60;;;;;;5113264;28;20114;-77
2022/09/18 12:40:01;;;;;;;9.05;1.35;;;13.40;80.50;;;;;;5113722;28;20387;-77
2022/09/18 12:42:57;;;;;;;7.22;1.27;;;13.50;80.20;;;;;;5096320;28;20035;-76
2022/09/18 12:45:50;;;;;;;7.45;2.08;;;13.50;79.90;;;;;;5113265;28;20035;-77
2022/09/18 12:48:19;;;;;;;3.53;1.42;;;13.50;80.30;;;;;;5113001;28;20556;-77
2022/09/18 12:51:20;;;;;;;3.72;0.82;;;13.50;77.70;;;;;;5113352;28;20043;-77
2022/09/18 12:53:46;;;;;;;8.23;1.20;;;13.30;75.50;;;;;;5112685;28;20073;-77
2022/09/18 12:56:14;;;;;;;6.32;1.40;;;13.20;75.90;;;;;;5112798;28;20047;-76
2022/09/18 12:58:46;;;;;;;2.90;0.90;;;13.10;77.00;;;;;;5112842;28;20036;-78
2022/09/18 13:01:27;;;;;;;9.52;1.27;;;13.10;78.30;;;;;;5112947;28;20077;-78
2022/09/18 13:04:01;;;;;;;5.18;1.42;;;13.10;78.70;;;;;;5112703;28;20518;-77
2022/09/18 13:06:53;;;;;;;7.45;1.77;;;13.00;79.30;;;;;;5112618;28;20053;-75
2022/09/18 13:09:38;;;;;;;8.55;1.58;;;13.00;79.10;;;;;;5095651;28;20487;-77
2022/09/18 13:12:12;;;;;;;7.13;1.00;;;13.00;79.10;;;;;;5112497;28;20043;-78